createdAt,value
2022-08-23T00:03:01.641Z,7.1
2022-08-23T00:08:01.769Z,7.8
2022-08-23T00:13:01.551Z,7.6
2022-08-23T00:18:01.704Z,9.7
2022-08-23T00:23:01.553Z,8.4
2022-08-23T00:28:01.719Z,8.0
2022-08-23T00:33:01.553Z,7.3
2022-08-23T00:38:33.298Z,7.8
2022-08-23T00:43:01.560Z,6.8
2022-08-23T00:48:01.903Z,8.6
2022-08-23T00:53:01.562Z,8.1
2022-08-23T00:58:01.816Z,8.5
2022-08-23T01:03:01.569Z,8.3
2022-08-23T01:08:01.794Z,9.5
2022-08-23T01:13:01.595Z,8.8
2022-08-23T01:18:01.689Z,9.3
2022-08-23T01:23:01.582Z,8.6
2022-08-23T01:28:01.766Z,7.8
2022-08-23T01:33:01.582Z,6.7
2022-08-23T01:38:01.768Z,8.5
2022-08-23T01:43:01.586Z,6.4
2022-08-23T01:48:01.881Z,9.2
2022-08-23T01:53:01.886Z,7.4
2022-08-23T01:58:01.593Z,8.7
2022-08-23T02:03:01.842Z,8.0
2022-08-23T02:08:01.700Z,7.5
2022-08-23T02:13:01.601Z,7.9
2022-08-23T02:18:01.723Z,9.1
2022-08-23T02:23:01.886Z,7.8
2022-08-23T02:28:01.614Z,9.9
2022-08-23T02:33:01.794Z,8.0
2022-08-23T02:38:01.830Z,8.8
2022-08-23T02:43:01.617Z,8.8
2022-08-23T02:48:01.823Z,9.8
2022-08-23T02:53:01.618Z,11.4
2022-08-23T02:58:01.776Z,13.4
2022-08-23T03:03:01.633Z,12.7
2022-08-23T03:08:01.812Z,7.7
2022-08-23T03:13:01.628Z,8.2
2022-08-23T03:18:01.818Z,7.9
2022-08-23T03:23:01.633Z,8.9
2022-08-23T03:28:01.917Z,8.1
2022-08-23T03:33:01.638Z,9.1
2022-08-23T03:38:01.841Z,11.1
2022-08-23T03:43:01.652Z,9.7
2022-08-23T03:48:01.964Z,14.5
2022-08-23T03:53:01.652Z,13.8
2022-08-23T03:58:01.930Z,10.9
2022-08-23T04:03:01.663Z,11.7
2022-08-23T04:08:01.966Z,12.8
2022-08-23T04:13:01.661Z,11.6
2022-08-23T04:18:01.903Z,11.9
2022-08-23T04:23:01.675Z,16.7
2022-08-23T04:28:02.013Z,13.5
2022-08-23T04:33:01.874Z,12.9
2022-08-23T04:38:01.927Z,12.8
2022-08-23T04:43:01.685Z,12.3
2022-08-23T04:48:01.974Z,11.4
2022-08-23T04:53:01.697Z,16.1
2022-08-23T04:58:02.000Z,13.3
2022-08-23T05:03:01.697Z,12.4
2022-08-23T05:08:01.890Z,11.2
2022-08-23T05:13:01.707Z,13.4
2022-08-23T05:18:01.857Z,15.9
2022-08-23T05:23:01.707Z,15.1
2022-08-23T05:28:01.846Z,14.7
2022-08-23T05:33:01.714Z,14.6
2022-08-23T05:38:01.871Z,15.4
2022-08-23T05:43:01.717Z,15.7
2022-08-23T05:48:01.880Z,16.8
2022-08-23T05:53:01.734Z,14.9
2022-08-23T05:58:01.930Z,15.1
2022-08-23T06:03:01.737Z,16.3
2022-08-23T06:08:02.078Z,14.9
2022-08-23T06:13:01.747Z,18.3
2022-08-23T06:18:02.019Z,15.9
2022-08-23T06:23:01.762Z,15.1
2022-08-23T06:28:01.965Z,18.1
2022-08-23T06:33:01.764Z,17.5
2022-08-23T06:38:02.018Z,16.1
2022-08-23T06:43:01.773Z,18.7
2022-08-23T06:48:01.945Z,18.2
2022-08-23T06:53:01.784Z,19.5
2022-08-23T06:58:01.965Z,18.6
2022-08-23T07:03:01.928Z,19.3
2022-08-23T07:08:01.803Z,18.8
2022-08-23T07:13:02.063Z,17.2
2022-08-23T07:18:01.807Z,19.8
2022-08-23T07:23:01.962Z,15.6
2022-08-23T07:28:02.074Z,18.2
2022-08-23T07:33:02.061Z,14.5
2022-08-23T07:38:01.975Z,13.2
2022-08-23T07:43:02.035Z,10.5
2022-08-23T07:48:02.059Z,9.3
2022-08-23T07:53:01.747Z,9.9
2022-08-23T07:58:02.028Z,9.7
2022-08-23T08:03:01.818Z,10.1
2022-08-23T08:08:01.914Z,11.1
2022-08-23T08:13:01.764Z,9.4
2022-08-23T08:18:02.013Z,11.9
2022-08-23T08:23:01.774Z,11.5
2022-08-23T08:28:01.903Z,15.4
2022-08-23T08:33:01.988Z,17.4
2022-08-23T08:38:01.791Z,13.7
2022-08-23T08:43:02.019Z,17.4
2022-08-23T08:48:02.013Z,14.4
2022-08-23T08:53:01.819Z,14.3
2022-08-23T08:58:02.075Z,11.2
2022-08-23T09:03:01.840Z,11.9
2022-08-23T09:08:02.019Z,13.6
2022-08-23T09:13:01.813Z,10.6
2022-08-23T09:18:01.997Z,11.9
2022-08-23T09:23:01.819Z,16.3
2022-08-23T09:28:02.058Z,15.3
2022-08-23T09:33:01.827Z,13.0
2022-08-23T09:38:01.949Z,13.3
2022-08-23T09:43:01.843Z,11.8
2022-08-23T09:48:02.117Z,10.8
2022-08-23T09:53:04.390Z,10.9
2022-08-23T09:58:01.851Z,12.5
2022-08-23T10:03:02.064Z,15.5
2022-08-23T10:08:01.859Z,9.9
2022-08-23T10:13:02.125Z,12.0
2022-08-23T10:18:01.974Z,10.1
2022-08-23T10:23:01.868Z,8.4
2022-08-23T10:28:02.089Z,5.5
2022-08-23T10:33:01.880Z,4.3
2022-08-23T10:38:02.156Z,2.6
2022-08-23T10:43:01.894Z,6.9
2022-08-23T10:48:02.173Z,6.2
2022-08-23T10:53:01.896Z,4.2
2022-08-23T10:58:02.039Z,5.6
2022-08-23T11:03:01.938Z,4.8
2022-08-23T11:08:02.104Z,7.2
2022-08-23T11:13:01.908Z,4.1
2022-08-23T11:18:02.063Z,4.3
2022-08-23T11:23:01.921Z,5.9
2022-08-23T11:28:02.103Z,6.8
2022-08-23T11:33:01.916Z,4.9
2022-08-23T11:38:03.833Z,6.9
2022-08-23T11:43:02.034Z,5.5
2022-08-23T11:48:02.238Z,5.5
2022-08-23T11:53:01.974Z,4.9
2022-08-23T11:58:02.232Z,6.2
2022-08-23T12:03:02.159Z,3.5
2022-08-23T12:08:02.261Z,7.3
2022-08-23T12:13:01.942Z,3.0
2022-08-23T12:18:02.109Z,3.2
2022-08-23T12:23:01.954Z,5.5
2022-08-23T12:28:02.149Z,4.1
2022-08-23T12:33:01.954Z,2.4
2022-08-23T12:38:02.153Z,3.7
2022-08-23T12:43:02.104Z,3.6
2022-08-23T12:48:01.981Z,3.3
2022-08-23T12:53:02.271Z,4.0
2022-08-23T12:58:01.977Z,4.6
2022-08-23T13:03:02.281Z,4.5
2022-08-23T13:08:01.971Z,2.9
2022-08-23T13:13:02.088Z,2.6
2022-08-23T13:18:02.193Z,2.9
2022-08-23T13:23:02.142Z,3.8
2022-08-23T13:28:02.009Z,2.9
2022-08-23T13:33:02.225Z,4.0
2022-08-23T13:38:02.007Z,2.3
2022-08-23T13:43:02.249Z,3.5
2022-08-23T13:48:02.013Z,2.6
2022-08-23T13:53:13.958Z,3.0
2022-08-23T13:58:02.027Z,2.6
2022-08-23T14:03:02.189Z,2.4
2022-08-23T14:08:02.038Z,4.0
2022-08-23T14:13:02.295Z,2.5
2022-08-23T14:18:02.038Z,3.6
2022-08-23T14:23:08.662Z,3.0
2022-08-23T14:28:02.047Z,3.0
2022-08-23T14:33:02.145Z,2.1
2022-08-23T14:38:03.720Z,2.5
2022-08-23T14:43:02.258Z,3.1
2022-08-23T14:48:02.156Z,3.2
2022-08-23T14:53:02.214Z,2.7
2022-08-23T14:58:02.062Z,1.6
2022-08-23T15:03:04.212Z,2.8
2022-08-23T15:08:02.064Z,9.3
2022-08-23T15:13:17.428Z,2.9
2022-08-23T15:18:02.200Z,2.7
2022-08-23T15:23:02.082Z,2.7
2022-08-23T15:28:02.089Z,2.6
2022-08-23T15:33:02.082Z,3.7
2022-08-23T15:38:02.082Z,3.7
2022-08-23T15:43:02.333Z,1.8
2022-08-23T15:48:02.084Z,3.7
2022-08-23T15:53:02.281Z,2.1
2022-08-23T15:58:02.085Z,3.5
2022-08-23T16:03:27.771Z,2.9
2022-08-23T16:08:02.090Z,2.1
2022-08-23T16:13:02.337Z,3.4
2022-08-23T16:18:02.096Z,5.1
2022-08-23T16:23:02.220Z,1.8
2022-08-23T16:28:02.112Z,2.5
2022-08-23T16:33:02.307Z,1.5
2022-08-23T16:38:02.123Z,1.9
2022-08-23T16:43:02.186Z,2.2
2022-08-23T16:48:02.118Z,3.6
2022-08-23T16:53:06.930Z,1.5
2022-08-23T16:58:02.123Z,2.3
2022-08-23T17:03:02.280Z,4.1
2022-08-23T17:08:02.131Z,1.8
2022-08-23T17:13:02.353Z,1.6
2022-08-23T17:18:02.131Z,1.9
2022-08-23T17:23:05.662Z,1.8
2022-08-23T17:28:02.150Z,3.0
2022-08-23T17:33:02.442Z,2.5
2022-08-23T17:38:02.174Z,2.9
2022-08-23T17:43:02.356Z,1.7
2022-08-23T17:48:02.146Z,1.4
2022-08-23T17:53:02.362Z,5.4
2022-08-23T17:58:04.176Z,2.1
2022-08-23T18:03:02.306Z,2.3
2022-08-23T18:08:02.154Z,2.6
2022-08-23T18:13:02.383Z,2.5
2022-08-23T18:18:02.178Z,2.9
2022-08-23T18:23:02.254Z,3.7
2022-08-23T18:28:02.166Z,2.6
2022-08-23T18:33:02.313Z,2.2
2022-08-23T18:38:02.158Z,1.6
2022-08-23T18:43:02.337Z,2.6
2022-08-23T18:48:02.171Z,2.4
2022-08-23T18:53:02.353Z,3.0
2022-08-23T18:58:02.161Z,3.0
2022-08-23T19:03:02.322Z,4.9
2022-08-23T19:08:02.171Z,2.1
2022-08-23T19:13:02.163Z,3.9
2022-08-23T19:18:02.171Z,4.0
2022-08-23T19:23:02.377Z,3.0
2022-08-23T19:28:02.177Z,6.5
2022-08-23T19:33:02.352Z,2.7
2022-08-23T19:38:02.169Z,3.1
2022-08-23T19:43:02.334Z,3.2
2022-08-23T19:48:02.177Z,3.4
2022-08-23T19:53:03.516Z,2.8
2022-08-23T19:58:02.182Z,2.8
2022-08-23T20:03:02.333Z,3.7
2022-08-23T20:08:02.180Z,3.9
2022-08-23T20:13:02.291Z,2.4
2022-08-23T20:18:02.190Z,3.0
2022-08-23T20:23:02.463Z,3.6
2022-08-23T20:28:02.296Z,4.0
2022-08-23T20:33:02.444Z,3.1
2022-08-23T20:38:02.510Z,4.2
2022-08-23T20:43:02.536Z,5.0
2022-08-23T20:48:02.304Z,5.7
2022-08-23T20:53:02.430Z,7.0
2022-08-23T20:58:02.311Z,6.3
2022-08-23T21:03:02.497Z,7.8
2022-08-23T21:08:02.330Z,10.0
2022-08-23T21:13:02.424Z,7.9
2022-08-23T21:18:02.318Z,11.2
2022-08-23T21:23:02.474Z,10.3
2022-08-23T21:28:04.303Z,9.2
2022-08-23T21:33:02.531Z,12.7
2022-08-23T21:38:02.324Z,8.6
2022-08-23T21:43:02.440Z,9.1
2022-08-23T21:48:02.325Z,8.2
2022-08-23T21:53:02.336Z,9.2
2022-08-23T21:58:02.344Z,9.4
2022-08-23T22:03:02.630Z,9.8
2022-08-23T22:08:02.342Z,9.9
2022-08-23T22:13:02.467Z,9.9
2022-08-23T22:18:02.348Z,10.1
2022-08-23T22:23:02.501Z,9.3
2022-08-23T22:28:02.353Z,10.0
2022-08-23T22:33:02.498Z,9.9
2022-08-23T22:43:02.359Z,10.8
2022-08-23T22:48:02.508Z,11.0
2022-08-23T22:53:02.367Z,11.2
2022-08-23T22:58:02.480Z,11.2
2022-08-23T23:03:02.392Z,9.7
2022-08-23T23:08:02.449Z,10.8
2022-08-23T23:13:02.384Z,12.0
2022-08-23T23:18:02.481Z,13.1
2022-08-23T23:23:02.377Z,13.9
2022-08-23T23:28:02.539Z,12.4
2022-08-23T23:33:02.385Z,12.5
2022-08-23T23:38:02.622Z,13.0
2022-08-23T23:43:02.386Z,14.3
2022-08-23T23:48:02.525Z,11.3
2022-08-23T23:53:02.395Z,13.1
2022-08-23T23:58:02.634Z,13.7
